Time;durP1;ratioP1;P1;durP2;ratioP2;P2;SDS_P1;SDS_P2;PMS_P1;PMS_P2;Temp;Humidity;BMP_temperature;BMP_pressure;BME280_temperature;BME280_humidity;BME280_pressure;Samples;Min_cycle;Max_cycle;Signal;HPM_P1;HPM_P2
2021/07/07 00:00:51;;;;;;;3.47;1.65;;;18.70;93.90;;;;;;4937147;29;20024;-82
2021/07/07 00:03:17;;;;;;;3.70;1.92;;;18.60;93.50;;;;;;4936813;29;20072;-82
2021/07/07 00:05:43;;;;;;;4.93;1.92;;;18.70;93.60;;;;;;4937021;29;20035;-82
2021/07/07 00:08:08;;;;;;;4.55;1.80;;;18.60;93.50;;;;;;4919840;29;20115;-82
2021/07/07 00:10:35;;;;;;;6.05;2.10;;;18.60;93.70;;;;;;4936761;29;20034;-82
2021/07/07 00:13:02;;;;;;;3.25;1.80;;;18.60;93.80;;;;;;4936396;29;20024;-82
2021/07/07 00:15:31;;;;;;;4.00;1.90;;;18.60;93.80;;;;;;4919568;29;20086;-82
2021/07/07 00:18:02;;;;;;;2.92;1.95;;;18.60;93.70;;;;;;4936827;29;20365;-82
2021/07/07 00:20:34;;;;;;;5.40;2.30;;;18.60;93.80;;;;;;4936780;29;20369;-82
2021/07/07 00:23:01;;;;;;;3.70;1.98;;;18.60;93.90;;;;;;4919155;29;20035;-82
2021/07/07 00:25:27;;;;;;;5.32;2.10;;;18.70;93.90;;;;;;4936786;29;20028;-82
2021/07/07 00:27:52;;;;;;;4.97;2.40;;;18.70;93.90;;;;;;4936638;29;20058;-82
2021/07/07 00:30:18;;;;;;;4.80;2.03;;;18.60;93.90;;;;;;4936637;29;20031;-83
2021/07/07 00:32:43;;;;;;;5.10;2.30;;;18.60;94.10;;;;;;4919555;29;20036;-83
2021/07/07 00:35:10;;;;;;;3.45;2.00;;;18.60;93.90;;;;;;4916246;29;20032;-82
2021/07/07 00:37:35;;;;;;;3.78;2.00;;;18.60;93.90;;;;;;4915979;29;20032;-81
2021/07/07 00:40:04;;;;;;;5.13;2.38;;;18.60;93.90;;;;;;4916872;29;20525;-82
2021/07/07 00:42:30;;;;;;;5.45;2.17;;;18.70;93.90;;;;;;4917398;29;20028;-82
2021/07/07 00:44:56;;;;;;;5.47;2.30;;;18.60;93.90;;;;;;4900558;29;20119;-81
2021/07/07 00:47:22;;;;;;;5.10;2.50;;;18.60;94.00;;;;;;4900246;29;20024;-82
2021/07/07 00:49:47;;;;;;;4.43;2.30;;;18.80;94.00;;;;;;4917362;29;20038;-82
2021/07/07 00:52:13;;;;;;;6.15;2.70;;;18.70;93.90;;;;;;4917160;29;20190;-82
2021/07/07 00:54:39;;;;;;;7.07;2.40;;;18.70;93.90;;;;;;4900231;29;20032;-81
2021/07/07 00:57:05;;;;;;;6.45;2.35;;;18.70;93.90;;;;;;4917090;29;20385;-82
2021/07/07 00:59:32;;;;;;;7.53;2.60;;;18.60;93.90;;;;;;4899680;29;20032;-82
2021/07/07 01:02:01;;;;;;;5.88;2.33;;;18.60;93.90;;;;;;4916943;29;20496;-82
2021/07/07 01:04:27;;;;;;;4.50;2.30;;;18.60;93.90;;;;;;4899520;29;20048;-82
2021/07/07 01:06:53;;;;;;;5.03;2.30;;;18.60;93.90;;;;;;4918930;29;20027;-82
2021/07/07 01:09:18;;;;;;;6.57;2.50;;;18.50;94.00;;;;;;4919042;29;20499;-82
2021/07/07 01:11:44;;;;;;;5.78;2.30;;;18.50;93.90;;;;;;4919250;29;20034;-81
2021/07/07 01:14:10;;;;;;;5.85;2.47;;;18.50;94.00;;;;;;4919690;29;20046;-82
2021/07/07 01:16:36;;;;;;;5.00;2.53;;;18.50;94.00;;;;;;4919929;29;20555;-82
2021/07/07 01:19:02;;;;;;;5.05;2.30;;;18.50;94.00;;;;;;4936489;29;20047;-82
2021/07/07 01:21:28;;;;;;;7.30;2.60;;;18.50;94.00;;;;;;4919064;29;20372;-82
2021/07/07 01:23:54;;;;;;;6.60;2.55;;;18.50;94.00;;;;;;4937076;29;20076;-83
2021/07/07 01:26:20;;;;;;;5.32;2.38;;;18.60;94.00;;;;;;4903632;29;20064;-82
2021/07/07 01:28:46;;;;;;;6.18;2.58;;;18.50;94.00;;;;;;4919543;29;20059;-82
2021/07/07 01:31:12;;;;;;;7.18;2.85;;;18.50;94.00;;;;;;4936180;29;20058;-82
2021/07/07 01:33:37;;;;;;;8.32;3.05;;;18.40;94.00;;;;;;4936196;29;20071;-83
2021/07/07 01:36:03;;;;;;;6.43;2.53;;;18.50;94.10;;;;;;4936236;29;20075;-83
2021/07/07 01:38:29;;;;;;;5.85;2.72;;;18.40;94.10;;;;;;4936153;29;20055;-83
2021/07/07 01:40:58;;;;;;;7.68;2.90;;;18.50;94.10;;;;;;4919014;29;20024;-82
2021/07/07 01:43:24;;;;;;;6.90;3.00;;;18.50;94.10;;;;;;4935645;29;20032;-82
2021/07/07 01:45:49;;;;;;;8.50;2.92;;;18.50;94.10;;;;;;4935873;29;20074;-82
2021/07/07 01:48:15;;;;;;;5.20;2.50;;;18.40;94.20;;;;;;4935689;29;20492;-82
2021/07/07 01:50:41;;;;;;;7.07;2.80;;;18.50;94.20;;;;;;4918765;29;20456;-82
2021/07/07 01:53:06;;;;;;;4.82;2.60;;;18.40;94.00;;;;;;4930268;29;20539;-82
2021/07/07 01:55:32;;;;;;;4.70;2.40;;;18.40;94.10;;;;;;4934458;29;20107;-81
2021/07/07 01:57:57;;;;;;;5.63;2.47;;;18.40;94.10;;;;;;4934718;29;20034;-81
2021/07/07 02:00:25;;;;;;;5.25;2.50;;;18.50;94.20;;;;;;4918935;29;20028;-82
2021/07/07 02:02:52;;;;;;;4.20;2.30;;;18.50;94.20;;;;;;4934363;29;20387;-81
2021/07/07 02:05:20;;;;;;;4.15;2.33;;;18.40;94.10;;;;;;4934969;29;20042;-81
2021/07/07 02:07:46;;;;;;;5.03;2.35;;;18.50;94.20;;;;;;4935743;29;20020;-81
2021/07/07 02:10:14;;;;;;;4.78;2.45;;;18.40;94.10;;;;;;4934589;29;20032;-82
2021/07/07 02:12:43;;;;;;;4.80;2.40;;;18.40;94.20;;;;;;4937583;29;20495;-82
2021/07/07 02:15:24;;;;;;;5.90;2.60;;;18.40;94.20;;;;;;4938650;29;20034;-82
2021/07/07 02:17:52;;;;;;;5.40;2.38;;;18.40;94.10;;;;;;4939038;29;20037;-81
2021/07/07 02:20:19;;;;;;;5.93;2.17;;;18.40;94.20;;;;;;4938028;29;20070;-82
2021/07/07 02:22:45;;;;;;;3.72;2.17;;;18.40;94.20;;;;;;4938893;29;20392;-82
2021/07/07 02:25:17;;;;;;;4.30;2.25;;;18.40;94.30;;;;;;4938846;29;20035;-82
2021/07/07 02:27:43;;;;;;;4.63;2.13;;;18.50;94.20;;;;;;4937304;29;20115;-82
2021/07/07 02:30:11;;;;;;;5.00;2.38;;;18.50;94.30;;;;;;4937207;29;20119;-82
2021/07/07 02:32:37;;;;;;;6.85;2.60;;;18.40;94.30;;;;;;4938981;29;20040;-82
2021/07/07 02:35:06;;;;;;;5.40;2.38;;;18.40;94.30;;;;;;4933881;29;20472;-82
2021/07/07 02:37:32;;;;;;;4.00;2.17;;;18.50;94.70;;;;;;4918679;29;20028;-82
2021/07/07 02:39:58;;;;;;;4.40;2.38;;;18.50;94.40;;;;;;4919891;29;20557;-82
2021/07/07 02:42:23;;;;;;;5.35;2.15;;;18.50;94.40;;;;;;4918488;29;20059;-82
2021/07/07 02:44:49;;;;;;;4.57;2.20;;;18.50;94.30;;;;;;4934200;29;20389;-82
2021/07/07 02:47:15;;;;;;;3.75;2.10;;;18.50;94.30;;;;;;4919809;29;20047;-82
2021/07/07 02:49:41;;;;;;;4.30;2.30;;;18.50;94.20;;;;;;4919396;29;20087;-82
2021/07/07 02:52:06;;;;;;;3.67;2.08;;;18.50;94.10;;;;;;4933673;29;20056;-82
2021/07/07 02:54:32;;;;;;;5.45;2.10;;;18.40;94.20;;;;;;4919263;29;20107;-82
2021/07/07 02:56:58;;;;;;;10.07;2.38;;;18.30;94.20;;;;;;4918049;29;20032;-82
2021/07/07 02:59:23;;;;;;;5.05;2.20;;;18.30;94.20;;;;;;4919233;29;20036;-82
2021/07/07 03:01:49;;;;;;;7.47;2.17;;;18.20;94.20;;;;;;4917901;29;20492;-81
2021/07/07 03:04:14;;;;;;;5.50;2.13;;;18.30;94.50;;;;;;4919205;29;20071;-81
2021/07/07 03:06:40;;;;;;;6.07;2.50;;;18.30;94.50;;;;;;4917755;29;20035;-83
2021/07/07 03:09:06;;;;;;;4.20;2.00;;;18.40;94.50;;;;;;4933725;29;20040;-82
2021/07/07 03:11:31;;;;;;;4.53;2.10;;;18.40;94.50;;;;;;4919052;29;20366;-82
2021/07/07 03:13:57;;;;;;;5.28;2.22;;;18.40;94.50;;;;;;4933705;29;20452;-81
2021/07/07 03:16:23;;;;;;;6.68;2.20;;;18.60;94.50;;;;;;4917489;29;20127;-81
2021/07/07 03:18:49;;;;;;;5.65;2.35;;;18.50;94.50;;;;;;4918734;29;20496;-81
2021/07/07 03:21:15;;;;;;;3.53;2.00;;;18.50;94.40;;;;;;4918794;29;20028;-82
2021/07/07 03:23:40;;;;;;;6.57;2.30;;;18.40;94.30;;;;;;4917789;29;20036;-82
2021/07/07 03:26:06;;;;;;;5.20;2.47;;;18.40;94.30;;;;;;4919056;29;20024;-81
2021/07/07 03:28:34;;;;;;;5.95;2.50;;;18.40;94.40;;;;;;4917698;29;20115;-82
2021/07/07 03:31:00;;;;;;;5.88;2.50;;;18.40;94.40;;;;;;4917295;29;20025;-82
2021/07/07 03:33:26;;;;;;;3.70;2.03;;;18.40;94.50;;;;;;4917189;29;20415;-82
2021/07/07 03:35:54;;;;;;;6.18;2.80;;;18.40;94.40;;;;;;4915081;29;20032;-82
2021/07/07 03:38:20;;;;;;;3.90;2.30;;;18.40;94.40;;;;;;4936308;29;20369;-82
2021/07/07 03:40:46;;;;;;;5.65;2.30;;;18.50;94.50;;;;;;4935897;29;20028;-81
2021/07/07 03:43:11;;;;;;;4.55;2.40;;;18.40;94.30;;;;;;4935516;29;20040;-80
2021/07/07 03:45:38;;;;;;;5.15;2.22;;;18.40;94.40;;;;;;4937025;29;20038;-81
2021/07/07 03:48:07;;;;;;;5.32;2.67;;;18.40;94.40;;;;;;4937174;29;20028;-81
2021/07/07 03:50:33;;;;;;;9.13;2.70;;;18.40;94.40;;;;;;4937277;29;20387;-81
2021/07/07 03:52:58;;;;;;;5.15;2.58;;;18.30;94.40;;;;;;4935650;29;20059;-81
2021/07/07 03:55:25;;;;;;;6.70;2.80;;;18.30;94.40;;;;;;4936146;29;20412;-81
2021/07/07 03:57:51;;;;;;;6.63;3.00;;;18.30;94.40;;;;;;4936832;29;20031;-81
2021/07/07 04:00:22;;;;;;;6.65;3.00;;;18.40;94.40;;;;;;4937053;29;20554;-81
2021/07/07 04:02:50;;;;;;;7.88;3.30;;;18.30;94.50;;;;;;4936209;29;20024;-81
2021/07/07 04:05:17;;;;;;;8.60;3.35;;;18.40;94.60;;;;;;4937024;29;20070;-81
2021/07/07 04:07:45;;;;;;;8.02;3.38;;;18.40;94.60;;;;;;4936058;29;20468;-81
2021/07/07 04:10:12;;;;;;;10.02;3.80;;;18.40;94.60;;;;;;4936730;29;20159;-81
2021/07/07 04:12:40;;;;;;;9.77;4.43;;;18.40;94.50;;;;;;4935510;29;20028;-81
2021/07/07 04:15:10;;;;;;;9.10;3.95;;;18.40;94.50;;;;;;4937206;29;20050;-81
2021/07/07 04:17:36;;;;;;;8.52;4.10;;;18.40;94.50;;;;;;4935520;29;20024;-81
2021/07/07 04:20:23;;;;;;;8.88;4.20;;;18.40;94.60;;;;;;4935871;29;20028;-81
2021/07/07 04:22:50;;;;;;;8.82;3.88;;;18.40;94.60;;;;;;4936044;29;20115;-81
2021/07/07 04:25:16;;;;;;;8.48;3.83;;;18.50;94.60;;;;;;4935209;29;20034;-81
2021/07/07 04:27:43;;;;;;;8.68;3.60;;;18.50;94.60;;;;;;4935253;29;20040;-81
2021/07/07 04:30:14;;;;;;;7.40;3.30;;;18.50;94.60;;;;;;4935115;29;20490;-81
2021/07/07 04:32:40;;;;;;;11.63;3.70;;;18.50;94.60;;;;;;4936402;29;20106;-81
2021/07/07 04:35:08;;;;;;;8.35;3.70;;;18.50;94.60;;;;;;4936158;29;20047;-81
2021/07/07 04:37:34;;;;;;;9.15;4.43;;;18.50;94.70;;;;;;4935304;29;20090;-81
2021/07/07 04:40:00;;;;;;;8.68;4.80;;;18.50;94.60;;;;;;4936622;29;20038;-81
2021/07/07 04:42:26;;;;;;;10.35;4.78;;;18.50;94.50;;;;;;4934808;29;20119;-81
2021/07/07 04:44:52;;;;;;;7.70;3.30;;;18.50;94.60;;;;;;4935160;29;20067;-81
2021/07/07 04:47:17;;;;;;;5.95;2.88;;;18.50;94.50;;;;;;4935266;29;20031;-81
2021/07/07 04:49:44;;;;;;;5.72;2.50;;;18.40;94.60;;;;;;4936564;29;20032;-81
2021/07/07 04:52:09;;;;;;;6.28;2.80;;;18.40;94.60;;;;;;4934979;29;20040;-81
2021/07/07 04:54:35;;;;;;;8.02;4.00;;;18.40;94.60;;;;;;4935528;29;20035;-80
2021/07/07 04:57:00;;;;;;;6.20;2.70;;;18.50;94.70;;;;;;4935342;29;20036;-81
2021/07/07 04:59:27;;;;;;;8.00;2.78;;;18.50;94.70;;;;;;4919305;29;20110;-82
2021/07/07 05:01:52;;;;;;;7.18;3.17;;;18.60;94.80;;;;;;4936521;29;20024;-80
2021/07/07 05:04:18;;;;;;;6.47;2.90;;;18.60;94.90;;;;;;4935019;29;20067;-80
2021/07/07 05:06:44;;;;;;;6.30;3.10;;;18.70;94.90;;;;;;4935004;29;20059;-81
2021/07/07 05:09:09;;;;;;;8.13;3.05;;;18.70;95.00;;;;;;4936506;29;20050;-80
2021/07/07 05:11:36;;;;;;;6.88;3.10;;;18.80;94.90;;;;;;4934619;29;20032;-80
2021/07/07 05:14:02;;;;;;;7.82;3.17;;;18.90;94.90;;;;;;4934998;29;20042;-81
2021/07/07 05:16:28;;;;;;;6.57;3.08;;;18.80;94.90;;;;;;4935521;29;20087;-81
2021/07/07 05:18:53;;;;;;;7.60;3.20;;;18.90;95.00;;;;;;4936266;29;20036;-80
2021/07/07 05:21:21;;;;;;;8.82;3.30;;;18.90;94.80;;;;;;4936176;29;20032;-83
2021/07/07 05:23:47;;;;;;;6.30;3.20;;;19.00;94.70;;;;;;4932264;29;20063;-80
2021/07/07 05:26:13;;;;;;;8.20;3.30;;;19.00;94.80;;;;;;4928029;29;20028;-81
2021/07/07 05:28:38;;;;;;;6.40;3.00;;;19.00;94.60;;;;;;4936510;29;20035;-82
2021/07/07 05:31:05;;;;;;;7.32;3.25;;;18.90;94.60;;;;;;4935338;29;20063;-82
2021/07/07 05:33:36;;;;;;;6.45;3.17;;;18.90;94.60;;;;;;4919445;29;20035;-81
2021/07/07 05:36:06;;;;;;;7.28;3.40;;;18.90;94.60;;;;;;4935854;29;20472;-82
2021/07/07 05:38:32;;;;;;;7.20;3.50;;;18.90;94.60;;;;;;4950763;29;20040;-81
2021/07/07 05:40:58;;;;;;;7.15;3.03;;;18.90;94.60;;;;;;4934657;29;20039;-81
2021/07/07 05:43:24;;;;;;;7.90;3.45;;;18.80;94.50;;;;;;4950805;29;20039;-81
2021/07/07 05:45:50;;;;;;;7.95;3.35;;;18.90;94.50;;;;;;4937140;29;20032;-81
2021/07/07 05:48:16;;;;;;;7.20;3.40;;;18.90;94.50;;;;;;4938245;29;20083;-80
2021/07/07 05:50:42;;;;;;;7.60;3.30;;;18.80;94.50;;;;;;4939787;29;20424;-84
2021/07/07 05:53:07;;;;;;;6.93;2.83;;;18.80;95.00;;;;;;4939412;29;20068;-83
2021/07/07 05:55:33;;;;;;;6.10;2.95;;;18.80;94.70;;;;;;4922136;29;20068;-83
2021/07/07 05:57:58;;;;;;;7.82;3.20;;;18.80;94.60;;;;;;4938905;29;20384;-83
2021/07/07 06:00:26;;;;;;;8.00;3.03;;;18.90;94.70;;;;;;4922266;29;20040;-83
2021/07/07 06:02:53;;;;;;;6.85;3.15;;;19.00;94.80;;;;;;4939358;29;20046;-83
2021/07/07 06:05:19;;;;;;;7.72;3.20;;;18.90;94.80;;;;;;4939219;29;20028;-83
2021/07/07 06:07:45;;;;;;;7.80;3.20;;;19.00;94.80;;;;;;4922267;29;20027;-83
2021/07/07 06:10:14;;;;;;;5.95;2.95;;;19.00;94.70;;;;;;4939532;29;20059;-84
2021/07/07 06:12:43;;;;;;;8.73;3.17;;;19.00;94.70;;;;;;4939103;29;20023;-82
2021/07/07 06:15:10;;;;;;;8.60;3.45;;;19.00;94.70;;;;;;4921903;29;20568;-82
2021/07/07 06:17:37;;;;;;;8.73;3.80;;;19.10;94.80;;;;;;4937210;29;20540;-81
2021/07/07 06:20:05;;;;;;;8.88;3.80;;;19.10;94.90;;;;;;4938748;29;20035;-80
2021/07/07 06:22:30;;;;;;;6.93;3.70;;;19.10;94.80;;;;;;4921724;29;20038;-81
2021/07/07 06:24:56;;;;;;;8.45;4.10;;;19.20;94.80;;;;;;4939055;29;20412;-81
2021/07/07 06:27:22;;;;;;;9.10;3.97;;;19.20;94.90;;;;;;4938817;29;20052;-81
2021/07/07 06:29:47;;;;;;;8.77;4.28;;;19.20;94.90;;;;;;4921628;29;20031;-81
2021/07/07 06:32:14;;;;;;;9.43;4.70;;;19.30;95.00;;;;;;4939083;29;20515;-82
2021/07/07 06:34:40;;;;;;;8.98;4.72;;;19.30;94.80;;;;;;4938641;29;20030;-82
2021/07/07 06:37:06;;;;;;;9.73;5.05;;;19.40;94.80;;;;;;4936727;29;20023;-82
2021/07/07 06:39:31;;;;;;;9.25;4.65;;;19.40;94.90;;;;;;4917000;29;20035;-82
2021/07/07 06:41:58;;;;;;;10.02;4.72;;;19.40;95.10;;;;;;4902583;29;20484;-82
2021/07/07 06:44:24;;;;;;;9.05;4.15;;;19.50;94.90;;;;;;4919682;29;20032;-82
2021/07/07 06:46:50;;;;;;;9.85;3.88;;;19.60;94.80;;;;;;4902470;29;20032;-82
2021/07/07 06:49:15;;;;;;;7.25;3.47;;;19.60;94.70;;;;;;4926940;29;20024;-82
2021/07/07 06:51:41;;;;;;;8.18;4.15;;;19.70;94.80;;;;;;4937135;29;20044;-81
2021/07/07 06:54:06;;;;;;;8.75;4.75;;;19.60;94.80;;;;;;4938592;29;20063;-81
2021/07/07 06:56:32;;;;;;;7.95;4.38;;;19.60;94.80;;;;;;4921683;29;20483;-81
2021/07/07 06:58:58;;;;;;;11.70;4.35;;;19.60;94.90;;;;;;4937924;29;20383;-82
2021/07/07 07:01:23;;;;;;;7.88;4.13;;;19.60;94.80;;;;;;4938409;29;20023;-84
2021/07/07 07:03:49;;;;;;;10.15;3.90;;;19.70;94.70;;;;;;4921482;29;20126;-81
2021/07/07 07:06:14;;;;;;;10.25;4.53;;;19.70;94.70;;;;;;4928142;29;20028;-82
2021/07/07 07:08:40;;;;;;;9.60;4.18;;;19.70;94.90;;;;;;4932174;29;20027;-82
2021/07/07 07:11:06;;;;;;;7.50;3.80;;;19.80;95.00;;;;;;4937893;29;20042;-82
2021/07/07 07:13:32;;;;;;;8.40;3.83;;;19.90;95.00;;;;;;4938074;29;20031;-80
2021/07/07 07:15:57;;;;;;;8.10;4.13;;;19.90;95.00;;;;;;4937783;29;20498;-80
2021/07/07 07:18:23;;;;;;;9.05;3.83;;;20.10;95.30;;;;;;4920868;29;20559;-83
2021/07/07 07:20:52;;;;;;;7.70;3.20;;;20.10;95.20;;;;;;4920724;29;20473;-83
2021/07/07 07:23:19;;;;;;;5.60;2.90;;;20.20;95.00;;;;;;4920470;29;20050;-83
2021/07/07 07:25:45;;;;;;;8.85;3.15;;;20.30;94.90;;;;;;4920639;29;20396;-82
2021/07/07 07:28:12;;;;;;;9.60;3.83;;;20.30;94.80;;;;;;4937855;29;20024;-82
2021/07/07 07:30:41;;;;;;;9.15;3.75;;;20.30;94.70;;;;;;4937024;29;20032;-82
2021/07/07 07:33:08;;;;;;;7.25;3.60;;;20.40;95.00;;;;;;4904600;29;20056;-82
2021/07/07 07:35:35;;;;;;;8.25;3.60;;;20.40;94.90;;;;;;4920507;29;20032;-83
2021/07/07 07:38:04;;;;;;;8.10;3.20;;;20.50;94.90;;;;;;4937471;29;20020;-83
2021/07/07 07:40:37;;;;;;;7.22;3.28;;;20.60;94.80;;;;;;4920121;29;20035;-82
2021/07/07 07:43:09;;;;;;;8.77;3.20;;;20.50;94.90;;;;;;4920150;29;20039;-81
2021/07/07 07:45:35;;;;;;;8.00;3.53;;;20.50;95.00;;;;;;4920454;29;20054;-82
2021/07/07 07:48:01;;;;;;;8.02;3.47;;;20.70;95.20;;;;;;4937557;29;20429;-82
2021/07/07 07:50:27;;;;;;;7.47;3.28;;;20.80;94.80;;;;;;4936911;29;20082;-82
2021/07/07 07:52:53;;;;;;;9.25;3.67;;;20.70;94.60;;;;;;4937315;29;20060;-82
2021/07/07 07:55:19;;;;;;;10.15;3.38;;;20.60;94.30;;;;;;4937230;29;20036;-82
2021/07/07 07:57:45;;;;;;;6.85;3.60;;;20.60;94.40;;;;;;4920452;29;20031;-82
2021/07/07 08:00:13;;;;;;;8.50;3.70;;;20.40;94.20;;;;;;4936865;29;20036;-82
2021/07/07 08:02:40;;;;;;;8.13;3.50;;;20.40;94.30;;;;;;4937109;29;20040;-82
2021/07/07 08:05:07;;;;;;;8.30;4.03;;;20.40;94.40;;;;;;4919829;29;20503;-81
2021/07/07 08:07:33;;;;;;;6.43;3.40;;;20.40;94.50;;;;;;4936978;29;20403;-82
2021/07/07 08:09:58;;;;;;;8.15;3.88;;;20.40;94.60;;;;;;4919426;29;20114;-82
2021/07/07 08:12:24;;;;;;;7.80;3.80;;;20.30;94.50;;;;;;4935514;29;20038;-83
2021/07/07 08:14:51;;;;;;;8.48;3.97;;;20.40;94.50;;;;;;4935712;29;20032;-82
2021/07/07 08:17:19;;;;;;;7.75;3.60;;;20.30;94.40;;;;;;4936863;29;20020;-82
2021/07/07 08:19:46;;;;;;;7.70;4.00;;;20.30;94.50;;;;;;4920025;29;20038;-82
2021/07/07 08:22:11;;;;;;;8.38;4.00;;;20.20;94.30;;;;;;4932043;29;20392;-82
2021/07/07 08:24:37;;;;;;;8.68;3.80;;;20.10;94.10;;;;;;4917544;29;20052;-81
2021/07/07 08:27:03;;;;;;;7.22;3.40;;;20.10;94.30;;;;;;4916608;29;20031;-82
2021/07/07 08:29:32;;;;;;;6.22;3.08;;;20.10;95.10;;;;;;4926572;29;20032;-81
2021/07/07 08:32:01;;;;;;;8.23;3.50;;;20.20;95.20;;;;;;4919707;29;20035;-82
2021/07/07 08:34:35;;;;;;;6.40;3.00;;;20.40;95.20;;;;;;4912681;29;20039;-82
2021/07/07 08:37:02;;;;;;;6.65;2.92;;;20.60;95.60;;;;;;4936582;29;20055;-83
2021/07/07 08:39:29;;;;;;;5.88;2.95;;;20.90;95.70;;;;;;4919765;29;20043;-82
2021/07/07 08:41:56;;;;;;;5.43;2.75;;;21.20;95.70;;;;;;4919355;29;20023;-82
2021/07/07 08:44:22;;;;;;;5.05;2.67;;;21.50;96.00;;;;;;4935972;29;20035;-82
2021/07/07 08:46:49;;;;;;;6.82;2.85;;;21.80;95.70;;;;;;4916315;29;20028;-82
2021/07/07 08:49:15;;;;;;;6.90;2.88;;;22.00;95.40;;;;;;4934710;29;20484;-82
2021/07/07 08:51:41;;;;;;;5.55;2.63;;;22.10;95.10;;;;;;4936126;29;20036;-82
2021/07/07 08:54:11;;;;;;;6.35;2.78;;;22.30;95.10;;;;;;4936426;29;20035;-82
2021/07/07 08:56:41;;;;;;;4.88;2.63;;;22.40;95.30;;;;;;4936363;29;20510;-82
2021/07/07 08:59:08;;;;;;;7.05;3.40;;;22.50;94.90;;;;;;4936555;29;20036;-82
2021/07/07 09:02:03;;;;;;;7.10;3.25;;;22.50;94.40;;;;;;4936451;29;20024;-82
2021/07/07 09:04:33;;;;;;;;;;;22.60;94.80;;;;;;4930433;29;20563;-83
2021/07/07 09:07:35;;;;;;;6.10;2.90;;;22.50;94.30;;;;;;4936329;29;19914;-81
2021/07/07 09:10:01;;;;;;;8.50;2.75;;;22.50;94.40;;;;;;4936045;29;20499;-82
2021/07/07 09:12:29;;;;;;;4.82;2.70;;;22.60;94.70;;;;;;4936151;29;20032;-83
2021/07/07 09:15:08;;;;;;;5.25;2.70;;;22.50;94.30;;;;;;4936163;29;20088;-83
2021/07/07 09:17:49;;;;;;;9.05;3.10;;;22.60;94.20;;;;;;4918996;29;20026;-82
2021/07/07 09:20:24;;;;;;;5.25;2.80;;;22.50;94.30;;;;;;4919617;29;20027;-83
2021/07/07 09:23:11;;;;;;;7.53;2.80;;;22.50;94.20;;;;;;4939930;29;20559;-82
2021/07/07 09:25:46;;;;;;;6.90;2.90;;;22.50;94.40;;;;;;4939731;29;20043;-82
2021/07/07 09:28:25;;;;;;;6.57;2.67;;;22.60;94.20;;;;;;4939916;29;20035;-82
2021/07/07 09:30:52;;;;;;;5.18;2.60;;;22.50;94.00;;;;;;4922478;29;20053;-82
2021/07/07 09:33:20;;;;;;;4.50;2.60;;;22.50;94.20;;;;;;4922535;29;20031;-82
2021/07/07 09:35:46;;;;;;;7.25;2.90;;;22.50;94.30;;;;;;4919678;29;20058;-82
2021/07/07 09:38:12;;;;;;;4.85;2.40;;;22.60;94.50;;;;;;4920656;29;20396;-82
2021/07/07 09:40:42;;;;;;;6.63;2.72;;;22.60;94.40;;;;;;4903892;29;20034;-80
2021/07/07 09:43:09;;;;;;;6.70;2.92;;;22.60;94.10;;;;;;4920702;29;20032;-81
2021/07/07 09:45:42;;;;;;;6.68;2.85;;;22.50;94.00;;;;;;4920814;29;20024;-82
2021/07/07 09:48:18;;;;;;;4.80;2.60;;;22.50;94.00;;;;;;4920911;29;20063;-82
2021/07/07 09:50:45;;;;;;;9.02;3.03;;;22.50;94.00;;;;;;4920521;29;20036;-82
2021/07/07 09:53:14;;;;;;;6.65;2.80;;;22.40;93.70;;;;;;4920293;29;20065;-82
2021/07/07 09:55:41;;;;;;;7.25;2.78;;;22.50;94.30;;;;;;4903531;29;20036;-82
2021/07/07 09:58:08;;;;;;;5.93;3.20;;;22.60;94.40;;;;;;4920299;29;20028;-83
2021/07/07 10:00:40;;;;;;;8.57;2.85;;;22.60;94.50;;;;;;4920593;29;20024;-83
2021/07/07 10:03:09;;;;;;;5.53;2.80;;;22.80;94.80;;;;;;4903014;29;20123;-82
2021/07/07 10:05:40;;;;;;;7.40;2.78;;;23.10;94.90;;;;;;4920256;29;20032;-82
2021/07/07 10:08:08;;;;;;;6.10;2.90;;;23.10;94.20;;;;;;4903513;29;20028;-82
2021/07/07 10:10:36;;;;;;;5.55;2.60;;;23.10;94.20;;;;;;4920204;29;20418;-82
2021/07/07 10:13:05;;;;;;;6.47;2.83;;;23.20;94.50;;;;;;4903046;29;20032;-82
2021/07/07 10:15:32;;;;;;;5.15;2.67;;;23.40;94.30;;;;;;4902982;29;20028;-82
2021/07/07 10:17:57;;;;;;;3.63;2.30;;;23.40;94.40;;;;;;4920064;29;20420;-82
2021/07/07 10:20:23;;;;;;;3.63;2.33;;;23.50;94.60;;;;;;4903143;29;20037;-82
2021/07/07 10:22:51;;;;;;;3.53;2.10;;;23.60;94.60;;;;;;4919905;29;20032;-82
2021/07/07 10:25:20;;;;;;;4.05;2.20;;;23.80;94.70;;;;;;4935875;29;20035;-82
2021/07/07 10:27:47;;;;;;;5.93;2.50;;;23.90;94.70;;;;;;4940830;29;20042;-82
2021/07/07 10:30:14;;;;;;;3.08;2.13;;;24.10;94.60;;;;;;4941098;29;20042;-83
2021/07/07 10:32:40;;;;;;;5.57;2.53;;;24.20;94.30;;;;;;4945980;28;20376;-82
2021/07/07 10:35:08;;;;;;;4.90;2.20;;;24.20;94.30;;;;;;4907287;29;20122;-82
2021/07/07 10:37:35;;;;;;;3.78;2.15;;;24.40;94.50;;;;;;4918347;29;20032;-83
2021/07/07 10:40:26;;;;;;;4.75;2.05;;;24.50;94.30;;;;;;4902729;29;20040;-83
2021/07/07 10:42:53;;;;;;;5.43;2.22;;;24.60;94.20;;;;;;4902463;29;20481;-83
2021/07/07 10:45:41;;;;;;;3.72;2.08;;;24.80;94.30;;;;;;4903065;29;20064;-82
2021/07/07 10:48:31;;;;;;;3.40;2.00;;;25.10;95.20;;;;;;4902703;29;20024;-83
2021/07/07 10:51:00;;;;;;;3.92;2.00;;;25.60;95.10;;;;;;4902527;29;20075;-83
2021/07/07 10:53:34;;;;;;;3.65;2.17;;;26.10;95.30;;;;;;4920041;29;20059;-83
2021/07/07 10:56:01;;;;;;;5.55;2.10;;;26.30;94.60;;;;;;4903815;29;20029;-83
2021/07/07 10:58:29;;;;;;;3.88;2.20;;;26.40;94.20;;;;;;4920133;29;20046;-82
2021/07/07 11:00:56;;;;;;;5.22;2.25;;;26.40;93.40;;;;;;4919493;29;20024;-82
2021/07/07 11:03:35;;;;;;;4.72;2.10;;;26.20;93.00;;;;;;4902511;29;20496;-82
2021/07/07 11:06:30;;;;;;;5.40;2.15;;;26.20;93.30;;;;;;4919745;29;20028;-82
2021/07/07 11:09:03;;;;;;;;;;;26.20;93.70;;;;;;4913331;29;20040;-83
2021/07/07 11:11:28;;;;;;;6.15;2.65;;;26.20;93.70;;;;;;4919154;29;19907;-82
2021/07/07 11:13:55;;;;;;;3.30;2.20;;;26.20;93.20;;;;;;4919155;29;20036;-83
2021/07/07 11:16:25;;;;;;;5.72;2.47;;;26.20;93.60;;;;;;4929809;29;20032;-83
2021/07/07 11:18:51;;;;;;;4.18;2.25;;;26.10;92.90;;;;;;4916596;29;20064;-84
2021/07/07 11:21:18;;;;;;;4.97;2.45;;;26.00;92.70;;;;;;4918597;29;20036;-83
2021/07/07 11:23:45;;;;;;;5.68;2.30;;;25.90;93.20;;;;;;4919330;29;20036;-82
2021/07/07 11:26:12;;;;;;;3.53;1.98;;;26.00;93.80;;;;;;4918489;29;20030;-83
2021/07/07 11:28:38;;;;;;;5.63;2.30;;;26.20;94.20;;;;;;4918877;29;20032;-82
2021/07/07 11:31:04;;;;;;;4.85;2.40;;;26.40;93.90;;;;;;4918912;29;20047;-82
2021/07/07 11:33:30;;;;;;;4.25;2.35;;;26.60;94.30;;;;;;4901915;29;20116;-83
2021/07/07 11:35:56;;;;;;;5.25;2.47;;;27.20;95.70;;;;;;4897119;29;20030;-82
2021/07/07 11:38:25;;;;;;;5.43;2.30;;;27.90;96.00;;;;;;4923933;29;20027;-82
2021/07/07 11:40:52;;;;;;;3.13;2.20;;;28.70;96.40;;;;;;4937532;29;20024;-83
2021/07/07 11:43:27;;;;;;;4.18;2.15;;;29.50;95.60;;;;;;4919780;29;20032;-82
2021/07/07 11:45:56;;;;;;;4.05;2.22;;;29.60;93.10;;;;;;4920197;29;20453;-82
2021/07/07 11:48:33;;;;;;;3.90;2.10;;;29.20;91.50;;;;;;4919264;29;20030;-83
2021/07/07 11:51:13;;;;;;;3.45;1.95;;;28.90;91.60;;;;;;4918429;29;20499;-81
2021/07/07 11:53:47;;;;;;;2.40;2.00;;;28.60;91.80;;;;;;4937075;29;20087;-83
2021/07/07 11:56:14;;;;;;;;;;;28.40;92.00;;;;;;4937756;29;20024;-83
2021/07/07 11:58:57;;;;;;;4.63;2.28;;;28.40;93.10;;;;;;4920212;29;19970;-83
2021/07/07 12:01:31;;;;;;;3.78;2.10;;;28.30;92.20;;;;;;4920199;29;20028;-82
2021/07/07 12:04:02;;;;;;;3.45;2.10;;;28.20;91.80;;;;;;4937145;29;20059;-81
2021/07/07 12:06:38;;;;;;;3.45;2.00;;;27.80;91.30;;;;;;4949349;29;20038;-84
2021/07/07 12:09:16;;;;;;;5.70;2.35;;;27.50;91.50;;;;;;4939665;29;20031;-84
2021/07/07 12:11:52;;;;;;;3.47;2.08;;;27.50;92.30;;;;;;4956972;29;20024;-84
2021/07/07 12:14:18;;;;;;;3.28;2.15;;;27.50;92.10;;;;;;4956170;29;20039;-84
2021/07/07 12:16:47;;;;;;;3.15;2.00;;;27.60;92.70;;;;;;4944632;28;20062;-84
2021/07/07 12:19:15;;;;;;;2.85;1.92;;;27.50;91.80;;;;;;4958083;28;20486;-84
2021/07/07 12:21:47;;;;;;;5.13;2.40;;;27.30;91.50;;;;;;4957937;28;20035;-84
2021/07/07 12:24:17;;;;;;;4.13;2.15;;;27.10;91.40;;;;;;4975540;28;20039;-84
2021/07/07 12:26:45;;;;;;;5.90;2.63;;;26.90;91.30;;;;;;4964119;28;20096;-83
2021/07/07 12:29:21;;;;;;;4.82;2.38;;;26.70;91.60;;;;;;4934894;29;20063;-85
2021/07/07 12:31:48;;;;;;;6.82;2.30;;;26.60;91.90;;;;;;4919903;29;20030;-85
2021/07/07 12:34:19;;;;;;;4.75;2.45;;;26.60;92.20;;;;;;4920737;29;20091;-86
2021/07/07 12:36:52;;;;;;;5.40;2.30;;;26.70;92.40;;;;;;4935648;29;20054;-85
2021/07/07 12:39:23;;;;;;;4.25;2.20;;;26.80;92.90;;;;;;4919476;29;20413;-85
2021/07/07 12:42:04;;;;;;;3.78;2.30;;;27.30;93.80;;;;;;4919602;29;20032;-85
2021/07/07 12:44:36;;;;;;;3.42;2.20;;;27.80;94.50;;;;;;4919172;29;20067;-85
2021/07/07 12:47:13;;;;;;;6.30;2.30;;;28.70;95.70;;;;;;4936495;29;20023;-85
2021/07/07 12:49:53;;;;;;;2.97;2.00;;;29.60;94.30;;;;;;4936711;29;20028;-85
2021/07/07 12:52:28;;;;;;;4.75;2.30;;;30.00;93.10;;;;;;4919040;29;20044;-85